Terminal Aerodrome Forecast
Issued by NWS

Home | Current Version | Previous Version | Graphics & Text | Print | Product List | Glossary On
Versions: 1 2 3 4 5 6 7 8 9 10 11 12
000
FTUS45 KGGW 161720
TAFGDV
TAF
KGDV 161720Z 1618/1718 20009KT P6SM FEW160
     FM170900 21010KT P6SM FEW025 WS020/30030KT=

USA.gov is the U.S. government's official web portal to all federal, state and local government web resources and services.